createdAt,value
2022-11-17T00:02:12.619Z,5.18
2022-11-17T00:04:40.455Z,3.92
2022-11-17T00:07:08.379Z,3.30
2022-11-17T00:09:36.244Z,1.95
2022-11-17T00:12:23.235Z,4.25
2022-11-17T00:14:51.457Z,5.30
2022-11-17T00:17:19.359Z,2.35
2022-11-17T00:20:04.705Z,3.15
2022-11-17T00:22:33.081Z,3.65
2022-11-17T00:25:00.912Z,3.90
2022-11-17T00:27:30.174Z,5.25
2022-11-17T00:29:58.049Z,3.83
2022-11-17T00:32:43.340Z,4.30
2022-11-17T00:35:11.180Z,3.40
2022-11-17T00:38:01.149Z,3.22
2022-11-17T00:40:29.062Z,4.95
2022-11-17T00:42:58.238Z,5.95
2022-11-17T00:45:26.100Z,4.20
2022-11-17T00:47:53.954Z,4.05
2022-11-17T00:50:21.898Z,5.32
2022-11-17T00:52:50.000Z,4.68
2022-11-17T00:55:18.213Z,5.57
2022-11-17T00:57:46.170Z,6.72
2022-11-17T01:00:17.523Z,5.03
2022-11-17T01:02:45.473Z,6.53
2022-11-17T01:05:13.504Z,5.65
2022-11-17T01:07:41.455Z,6.40
2022-11-17T01:10:10.372Z,4.22
2022-11-17T01:12:38.450Z,3.85
2022-11-17T01:15:07.206Z,6.70
2022-11-17T01:17:36.502Z,5.20
2022-11-17T01:20:04.929Z,6.43
2022-11-17T01:22:32.734Z,11.65
2022-11-17T01:25:00.567Z,7.85
2022-11-17T01:27:28.465Z,6.47
2022-11-17T01:29:56.259Z,7.72
2022-11-17T01:32:24.056Z,10.55
2022-11-17T01:34:53.382Z,5.55
2022-11-17T01:37:21.375Z,5.68
2022-11-17T01:39:50.256Z,5.57
2022-11-17T01:42:19.893Z,6.50
2022-11-17T01:45:06.338Z,6.40
2022-11-17T01:47:38.280Z,6.57
2022-11-17T01:50:11.405Z,5.15
2022-11-17T01:52:41.014Z,5.57
2022-11-17T01:55:10.372Z,5.03
2022-11-17T01:57:40.825Z,13.18
2022-11-17T02:00:16.800Z,3.90
2022-11-17T02:02:45.114Z,5.60
2022-11-17T02:05:25.428Z,4.07
2022-11-17T02:07:54.728Z,4.50
2022-11-17T02:10:22.795Z,5.63
2022-11-17T02:12:50.753Z,3.40
2022-11-17T02:15:18.685Z,3.50
2022-11-17T02:17:46.588Z,4.00
2022-11-17T02:20:16.406Z,4.45
2022-11-17T02:23:11.454Z,6.15
2022-11-17T02:26:17.432Z,3.85
2022-11-17T02:28:50.689Z,2.95
2022-11-17T02:31:24.027Z,5.78
2022-11-17T02:33:55.980Z,4.57
2022-11-17T02:36:29.969Z,7.35
2022-11-17T02:39:03.070Z,3.70
2022-11-17T02:41:35.006Z,4.55
2022-11-17T02:44:06.534Z,4.20
2022-11-17T02:46:46.165Z,3.42
2022-11-17T02:49:17.889Z,3.80
2022-11-17T02:51:46.821Z,6.75
2022-11-17T02:54:14.992Z,4.50
2022-11-17T02:56:43.179Z,3.83
2022-11-17T02:59:13.864Z,5.30
2022-11-17T03:01:55.324Z,4.15
2022-11-17T03:04:31.208Z,6.20
2022-11-17T03:07:11.044Z,4.82
2022-11-17T03:09:47.058Z,3.60
2022-11-17T03:12:20.018Z,5.43
2022-11-17T03:17:22.493Z,3.95
2022-11-17T03:19:56.530Z,4.65
2022-11-17T03:22:26.717Z,4.22
2022-11-17T03:24:58.214Z,6.88
2022-11-17T03:27:28.293Z,4.07
2022-11-17T03:30:00.235Z,3.70
2022-11-17T03:32:29.591Z,3.70
2022-11-17T03:34:59.860Z,4.18
2022-11-17T03:37:29.725Z,6.00
2022-11-17T03:40:00.218Z,4.32
2022-11-17T03:42:30.005Z,3.38
2022-11-17T03:45:02.709Z,3.38
2022-11-17T03:47:32.149Z,2.70
2022-11-17T03:50:03.688Z,3.78
2022-11-17T03:52:32.065Z,4.57
2022-11-17T03:55:00.176Z,3.72
2022-11-17T03:57:32.609Z,3.90
2022-11-17T04:00:05.427Z,6.00
2022-11-17T04:02:41.966Z,5.22
2022-11-17T04:05:10.234Z,4.05
2022-11-17T04:07:40.111Z,6.28
2022-11-17T04:10:10.421Z,3.67
2022-11-17T04:12:55.988Z,2.80
2022-11-17T04:15:43.061Z,4.40
2022-11-17T04:18:10.955Z,3.47
2022-11-17T04:20:38.874Z,7.38
2022-11-17T04:23:08.111Z,3.00
2022-11-17T04:25:53.819Z,4.45
2022-11-17T04:28:38.883Z,3.30
2022-11-17T04:31:10.870Z,3.65
2022-11-17T04:33:40.389Z,3.45
2022-11-17T04:36:08.927Z,4.05
2022-11-17T04:38:36.953Z,6.53
2022-11-17T04:41:24.340Z,5.30
2022-11-17T04:43:52.545Z,3.15
2022-11-17T04:46:23.015Z,4.05
2022-11-17T04:48:51.236Z,5.10
2022-11-17T04:51:19.141Z,3.97
2022-11-17T04:53:47.402Z,4.53
2022-11-17T04:56:15.363Z,3.88
2022-11-17T04:58:43.705Z,4.28
2022-11-17T05:01:14.614Z,4.97
2022-11-17T05:03:45.818Z,5.05
2022-11-17T05:06:16.760Z,2.95
2022-11-17T05:08:45.532Z,3.38
2022-11-17T05:11:32.241Z,4.93
2022-11-17T05:14:00.622Z,4.80
2022-11-17T05:16:46.061Z,2.90
2022-11-17T05:19:16.780Z,5.78
2022-11-17T05:21:44.625Z,9.73
2022-11-17T05:24:11.862Z,6.25
2022-11-17T05:26:39.750Z,7.47
2022-11-17T05:29:08.303Z,11.80
2022-11-17T05:31:36.340Z,6.68
2022-11-17T05:34:05.220Z,6.25
2022-11-17T05:36:34.645Z,7.00
2022-11-17T05:39:02.964Z,7.18
2022-11-17T05:41:30.882Z,9.15
2022-11-17T05:43:59.475Z,9.77
2022-11-17T05:46:27.713Z,12.20
2022-11-17T05:48:55.588Z,9.57
2022-11-17T05:51:24.699Z,9.60
2022-11-17T05:53:54.033Z,9.20
2022-11-17T05:56:36.840Z,9.13
2022-11-17T05:59:13.087Z,9.50
2022-11-17T06:01:44.920Z,7.20
2022-11-17T06:04:15.784Z,7.10
2022-11-17T06:06:43.673Z,6.97
2022-11-17T06:09:13.464Z,10.98
2022-11-17T06:11:41.450Z,6.80
2022-11-17T06:14:09.339Z,7.93
2022-11-17T06:16:43.067Z,10.40
2022-11-17T06:19:14.188Z,7.88
2022-11-17T06:22:10.098Z,9.15
2022-11-17T06:24:32.941Z,11.20
2022-11-17T06:27:02.525Z,8.57
2022-11-17T06:29:30.753Z,9.43
2022-11-17T06:31:59.229Z,9.27
2022-11-17T06:34:27.996Z,9.55
2022-11-17T06:36:55.995Z,10.93
2022-11-17T06:39:23.991Z,8.52
2022-11-17T06:41:53.546Z,10.02
2022-11-17T06:44:21.614Z,15.15
2022-11-17T06:46:49.738Z,12.18
2022-11-17T06:49:17.630Z,14.70
2022-11-17T06:51:45.810Z,9.60
2022-11-17T06:54:14.602Z,12.90
2022-11-17T06:56:43.685Z,11.82
2022-11-17T06:59:14.262Z,13.82
2022-11-17T07:01:42.479Z,10.65
2022-11-17T07:04:10.392Z,11.68
2022-11-17T07:06:38.341Z,15.05
2022-11-17T07:09:06.538Z,13.73
2022-11-17T07:11:36.160Z,8.23
2022-11-17T07:14:04.057Z,13.40
2022-11-17T07:16:33.527Z,10.95
2022-11-17T07:19:03.477Z,17.13
2022-11-17T07:21:31.438Z,8.50
2022-11-17T07:23:59.331Z,10.98
2022-11-17T07:26:27.188Z,6.43
2022-11-17T07:28:55.144Z,11.93
2022-11-17T07:31:23.184Z,15.30
2022-11-17T07:33:54.321Z,11.07
2022-11-17T07:36:22.221Z,10.52
2022-11-17T07:38:50.103Z,15.57
2022-11-17T07:41:17.924Z,11.80
2022-11-17T07:43:45.880Z,9.32
2022-11-17T07:46:15.786Z,6.97
2022-11-17T07:48:44.430Z,9.02
2022-11-17T07:51:14.147Z,11.02
2022-11-17T07:53:42.116Z,8.95
2022-11-17T07:56:11.244Z,8.90
2022-11-17T07:58:40.060Z,9.70
2022-11-17T08:01:08.565Z,9.32
2022-11-17T08:03:36.711Z,6.68
2022-11-17T08:06:05.322Z,7.28
2022-11-17T08:08:35.399Z,9.48
2022-11-17T08:11:04.621Z,9.85
2022-11-17T08:13:32.459Z,11.55
2022-11-17T08:16:00.477Z,8.95
2022-11-17T08:18:28.738Z,12.05
2022-11-17T08:21:02.335Z,11.73
2022-11-17T08:23:31.745Z,12.57
2022-11-17T08:26:01.123Z,12.38
2022-11-17T08:28:29.193Z,7.80
2022-11-17T08:30:57.217Z,9.00
2022-11-17T08:33:25.152Z,10.88
2022-11-17T08:35:53.044Z,8.15
2022-11-17T08:38:20.973Z,10.88
2022-11-17T08:40:48.803Z,16.02
2022-11-17T08:43:18.067Z,10.35
2022-11-17T08:45:46.005Z,10.40
2022-11-17T08:48:13.889Z,11.50
2022-11-17T08:50:41.764Z,9.82
2022-11-17T08:53:14.370Z,11.00
2022-11-17T08:55:42.512Z,10.30
2022-11-17T08:58:10.612Z,7.38
2022-11-17T09:00:40.204Z,7.85
2022-11-17T09:03:08.926Z,8.43
2022-11-17T09:05:40.043Z,6.22
2022-11-17T09:08:30.148Z,6.00
2022-11-17T09:10:56.385Z,6.03
2022-11-17T09:13:24.308Z,26.30
2022-11-17T09:15:53.527Z,24.20
2022-11-17T09:18:21.388Z,14.43
2022-11-17T09:20:49.214Z,12.65
2022-11-17T09:23:17.046Z,8.77
2022-11-17T09:25:45.299Z,9.68
2022-11-17T09:28:13.201Z,8.18
2022-11-17T09:30:41.061Z,11.27
2022-11-17T09:33:10.271Z,6.22
2022-11-17T09:35:38.164Z,14.50
2022-11-17T09:38:06.031Z,11.23
2022-11-17T09:40:37.991Z,6.55
2022-11-17T09:43:07.828Z,4.40
2022-11-17T09:45:38.540Z,8.52
2022-11-17T09:48:39.593Z,6.63
2022-11-17T09:51:02.057Z,5.90
2022-11-17T09:53:37.967Z,10.27
2022-11-17T09:56:08.828Z,6.40
2022-11-17T09:58:42.602Z,6.50
2022-11-17T10:01:13.012Z,5.18
2022-11-17T10:03:46.189Z,5.90
2022-11-17T10:06:18.046Z,9.35
2022-11-17T10:08:50.896Z,7.82
2022-11-17T10:11:34.868Z,4.95
2022-11-17T10:14:04.938Z,7.57
2022-11-17T10:16:32.935Z,11.23
2022-11-17T10:19:07.207Z,7.53
2022-11-17T10:21:35.389Z,5.85
2022-11-17T10:24:03.333Z,8.43
2022-11-17T10:26:45.358Z,26.35
2022-11-17T10:29:14.624Z,7.07
2022-11-17T10:31:44.477Z,7.90
2022-11-17T10:34:38.827Z,10.90
2022-11-17T10:37:25.297Z,10.40
2022-11-17T10:40:08.129Z,10.52
2022-11-17T10:42:35.979Z,8.95
2022-11-17T10:45:03.954Z,9.93
2022-11-17T10:47:40.439Z,8.43
2022-11-17T10:50:25.305Z,9.75
2022-11-17T10:52:54.385Z,10.48
2022-11-17T10:55:26.411Z,14.25
2022-11-17T10:57:58.039Z,9.30
2022-11-17T11:00:28.877Z,11.73
2022-11-17T11:03:18.394Z,15.07
2022-11-17T11:06:06.504Z,10.80
2022-11-17T11:08:45.072Z,12.40
2022-11-17T11:11:20.281Z,11.98
2022-11-17T11:13:52.103Z,15.88
2022-11-17T11:16:20.155Z,11.05
2022-11-17T11:18:53.078Z,11.63
2022-11-17T11:21:35.787Z,13.38
2022-11-17T11:24:09.731Z,11.00
2022-11-17T11:26:50.903Z,11.20
2022-11-17T11:29:27.753Z,12.52
2022-11-17T11:32:06.733Z,9.10
2022-11-17T11:34:58.240Z,10.23
2022-11-17T11:37:33.361Z,7.68
2022-11-17T11:40:04.923Z,7.22
2022-11-17T11:42:44.411Z,8.70
2022-11-17T11:45:19.514Z,8.38
2022-11-17T11:48:03.544Z,8.95
2022-11-17T11:50:38.938Z,6.90
2022-11-17T11:53:17.923Z,12.85
2022-11-17T11:55:47.906Z,5.75
2022-11-17T11:58:26.169Z,5.93
2022-11-17T12:00:57.516Z,6.25
2022-11-17T12:03:26.965Z,8.43
2022-11-17T12:06:26.925Z,6.75
2022-11-17T12:09:07.653Z,5.60
2022-11-17T12:11:53.679Z,5.72
2022-11-17T12:14:21.576Z,9.57
2022-11-17T12:16:49.454Z,13.65
2022-11-17T12:19:59.561Z,5.30
2022-11-17T12:22:52.038Z,4.85
2022-11-17T12:25:24.591Z,8.93
2022-11-17T12:27:53.657Z,6.97
2022-11-17T12:30:53.617Z,6.30
2022-11-17T12:33:21.706Z,5.95
2022-11-17T12:36:16.500Z,12.18
2022-11-17T12:38:44.448Z,6.00
2022-11-17T12:41:13.699Z,5.55
2022-11-17T12:43:41.743Z,5.45
2022-11-17T12:46:29.102Z,5.00
2022-11-17T12:48:59.884Z,5.13
2022-11-17T12:51:34.287Z,8.55
2022-11-17T12:54:08.049Z,7.25
2022-11-17T12:56:54.858Z,5.20
2022-11-17T13:00:02.319Z,5.15
2022-11-17T13:02:53.071Z,8.73
2022-11-17T13:05:22.243Z,4.97
2022-11-17T13:07:50.460Z,5.00
2022-11-17T13:10:26.225Z,6.95
2022-11-17T13:13:14.081Z,6.20
2022-11-17T13:15:42.592Z,11.10
2022-11-17T13:18:20.101Z,20.02
2022-11-17T13:20:51.311Z,5.70
2022-11-17T13:23:22.832Z,5.78
2022-11-17T13:25:51.758Z,7.65
2022-11-17T13:28:32.095Z,8.40
2022-11-17T13:31:01.333Z,9.25
2022-11-17T13:33:30.944Z,6.93
2022-11-17T13:36:17.369Z,9.27
2022-11-17T13:38:49.511Z,6.22
2022-11-17T13:41:18.217Z,6.97
2022-11-17T13:43:48.689Z,7.95
2022-11-17T13:46:16.926Z,7.35
2022-11-17T13:48:46.045Z,10.27
2022-11-17T13:51:39.565Z,8.48
2022-11-17T13:54:15.030Z,7.32
2022-11-17T13:56:50.064Z,4.93
2022-11-17T13:59:26.109Z,7.22
2022-11-17T14:02:22.677Z,3.75
2022-11-17T14:05:06.413Z,7.65
2022-11-17T14:07:35.862Z,10.65
2022-11-17T14:10:14.693Z,12.20
2022-11-17T14:12:42.848Z,5.82
2022-11-17T14:15:16.185Z,7.35
2022-11-17T14:17:49.523Z,9.52
2022-11-17T14:20:29.299Z,9.05
2022-11-17T14:23:02.233Z,5.68
2022-11-17T14:27:57.877Z,7.22
2022-11-17T14:30:27.285Z,5.22
2022-11-17T14:32:58.305Z,8.70
2022-11-17T14:35:31.503Z,7.72
2022-11-17T14:37:59.500Z,5.30
2022-11-17T14:40:27.356Z,7.35
2022-11-17T14:42:55.196Z,6.13
2022-11-17T14:45:23.041Z,5.10
2022-11-17T14:47:52.322Z,5.70
2022-11-17T14:50:20.379Z,6.55
2022-11-17T14:52:48.242Z,6.53
2022-11-17T14:55:16.224Z,7.22
2022-11-17T14:57:44.163Z,7.97
2022-11-17T15:00:18.865Z,5.15
2022-11-17T15:02:48.541Z,4.50
2022-11-17T15:05:18.045Z,7.25
2022-11-17T15:07:45.962Z,6.10
2022-11-17T15:10:14.040Z,6.05
2022-11-17T15:12:41.908Z,4.72
2022-11-17T15:15:10.514Z,6.63
2022-11-17T15:17:38.755Z,7.25
2022-11-17T15:20:09.313Z,12.65
2022-11-17T15:22:38.701Z,7.90
2022-11-17T15:25:07.983Z,8.68
2022-11-17T15:27:36.104Z,8.93
2022-11-17T15:30:04.472Z,8.80
2022-11-17T15:32:32.383Z,8.82
2022-11-17T15:35:00.211Z,10.32
2022-11-17T15:37:28.494Z,7.97
2022-11-17T15:39:57.738Z,10.20
2022-11-17T15:42:25.628Z,6.18
2022-11-17T15:44:53.678Z,5.88
2022-11-17T15:47:21.570Z,10.68
2022-11-17T15:49:49.368Z,6.72
2022-11-17T15:52:19.544Z,6.28
2022-11-17T15:54:59.592Z,7.22
2022-11-17T15:57:27.482Z,9.63
2022-11-17T15:59:55.402Z,7.78
2022-11-17T16:02:23.394Z,5.85
2022-11-17T16:04:51.231Z,8.43
2022-11-17T16:07:19.351Z,6.25
2022-11-17T16:09:49.278Z,11.90
2022-11-17T16:12:19.707Z,8.65
2022-11-17T16:14:47.600Z,5.53
2022-11-17T16:17:15.437Z,6.05
2022-11-17T16:19:43.244Z,7.70
2022-11-17T16:22:11.165Z,13.85
2022-11-17T16:24:40.148Z,7.18
2022-11-17T16:27:08.045Z,11.75
2022-11-17T16:29:37.271Z,6.78
2022-11-17T16:32:05.416Z,9.60
2022-11-17T16:34:33.309Z,9.05
2022-11-17T16:37:01.209Z,8.40
2022-11-17T16:39:29.056Z,10.30
2022-11-17T16:41:58.991Z,12.50
2022-11-17T16:44:27.048Z,12.10
2022-11-17T16:46:56.797Z,8.75
2022-11-17T16:49:24.691Z,10.13
2022-11-17T16:51:54.724Z,7.70
2022-11-17T16:54:22.631Z,8.95
2022-11-17T16:56:50.511Z,8.68
2022-11-17T16:59:18.743Z,11.55
2022-11-17T17:01:47.541Z,11.35
2022-11-17T17:04:16.857Z,10.10
2022-11-17T17:06:45.902Z,9.30
2022-11-17T17:09:15.597Z,8.98
2022-11-17T17:11:43.768Z,9.73
2022-11-17T17:14:14.066Z,7.82
2022-11-17T17:16:42.444Z,9.20
2022-11-17T17:19:11.973Z,8.80
2022-11-17T17:21:41.869Z,7.53
2022-11-17T17:24:10.895Z,9.63
2022-11-17T17:26:39.213Z,9.18
2022-11-17T17:29:08.460Z,7.53
2022-11-17T17:31:38.241Z,7.25
2022-11-17T17:34:07.275Z,11.32
2022-11-17T17:36:36.467Z,15.80
2022-11-17T17:39:06.300Z,10.88
2022-11-17T17:41:36.092Z,7.57
2022-11-17T17:44:06.001Z,10.00
2022-11-17T17:46:35.627Z,7.20
2022-11-17T17:49:03.652Z,8.02
2022-11-17T17:51:31.673Z,11.68
2022-11-17T17:54:01.840Z,7.70
2022-11-17T17:56:31.440Z,7.80
2022-11-17T17:59:00.094Z,10.52
2022-11-17T18:01:29.208Z,13.65
2022-11-17T18:04:01.026Z,10.68
2022-11-17T18:06:28.971Z,8.65
2022-11-17T18:08:56.985Z,11.82
2022-11-17T18:11:25.390Z,8.45
2022-11-17T18:13:55.205Z,10.75
2022-11-17T18:16:25.081Z,14.38
2022-11-17T18:18:57.382Z,7.72
2022-11-17T18:21:25.308Z,8.13
2022-11-17T18:23:53.622Z,14.20
2022-11-17T18:26:22.790Z,13.25
2022-11-17T18:28:52.453Z,9.55
2022-11-17T18:31:22.783Z,9.02
2022-11-17T18:33:54.482Z,13.52
2022-11-17T18:36:22.632Z,7.78
2022-11-17T18:38:52.633Z,6.43
2022-11-17T18:41:21.855Z,10.95
2022-11-17T18:43:50.302Z,7.95
2022-11-17T18:46:19.908Z,11.27
2022-11-17T18:48:50.840Z,8.60
2022-11-17T18:51:21.353Z,11.65
2022-11-17T18:53:49.791Z,8.95
2022-11-17T18:56:19.457Z,8.10
2022-11-17T18:58:48.123Z,10.52
2022-11-17T19:01:18.131Z,8.38
2022-11-17T19:03:47.921Z,7.28
2022-11-17T19:06:18.350Z,8.25
2022-11-17T19:08:46.467Z,12.35
2022-11-17T19:11:14.584Z,8.65
2022-11-17T19:13:43.826Z,10.45
2022-11-17T19:16:13.697Z,11.25
2022-11-17T19:18:42.060Z,14.65
2022-11-17T19:21:11.292Z,9.07
2022-11-17T19:23:42.598Z,11.23
2022-11-17T19:26:12.603Z,8.00
2022-11-17T19:28:40.750Z,8.90
2022-11-17T19:31:10.124Z,9.02
2022-11-17T19:33:39.536Z,8.05
2022-11-17T19:36:09.945Z,10.55
2022-11-17T19:38:39.800Z,12.68
2022-11-17T19:41:08.932Z,9.88
2022-11-17T19:43:43.398Z,9.32
2022-11-17T19:46:14.785Z,9.30
2022-11-17T19:48:43.545Z,11.68
2022-11-17T19:51:16.581Z,10.93
2022-11-17T19:53:46.091Z,14.55
2022-11-17T19:56:13.998Z,13.35
2022-11-17T19:58:42.121Z,13.45
2022-11-17T20:01:11.948Z,11.48
2022-11-17T20:03:40.552Z,13.40
2022-11-17T20:06:09.201Z,13.10
2022-11-17T20:08:37.541Z,10.43
2022-11-17T20:11:09.222Z,13.32
2022-11-17T20:13:37.945Z,16.30
2022-11-17T20:16:11.929Z,13.98
2022-11-17T20:18:40.445Z,14.80
2022-11-17T20:21:09.072Z,13.68
2022-11-17T20:23:38.141Z,18.88
2022-11-17T20:26:09.162Z,13.65
2022-11-17T20:28:38.116Z,14.52
2022-11-17T20:31:09.915Z,14.45
2022-11-17T20:33:38.076Z,16.63
2022-11-17T20:36:07.136Z,14.88
2022-11-17T20:38:35.812Z,14.18
2022-11-17T20:41:04.743Z,15.55
2022-11-17T20:43:35.173Z,13.43
2022-11-17T20:46:04.478Z,16.40
2022-11-17T20:48:34.071Z,16.75
2022-11-17T20:51:03.346Z,19.33
2022-11-17T20:53:31.481Z,19.05
2022-11-17T20:56:00.217Z,22.25
2022-11-17T20:58:28.892Z,20.60
2022-11-17T21:00:58.744Z,21.83
2022-11-17T21:03:27.750Z,17.00
2022-11-17T21:05:58.691Z,19.40
2022-11-17T21:08:29.624Z,26.77
2022-11-17T21:10:58.038Z,22.38
2022-11-17T21:13:26.106Z,18.90
2022-11-17T21:16:09.451Z,23.02
2022-11-17T21:18:38.243Z,18.83
2022-11-17T21:21:08.937Z,17.88
2022-11-17T21:23:37.424Z,16.40
2022-11-17T21:26:06.761Z,24.10
2022-11-17T21:28:34.708Z,19.00
2022-11-17T21:31:09.263Z,21.33
2022-11-17T21:33:37.564Z,18.10
2022-11-17T21:36:07.725Z,23.85
2022-11-17T21:38:35.622Z,15.85
2022-11-17T21:41:04.103Z,19.55
2022-11-17T21:43:32.510Z,21.85
2022-11-17T21:46:03.877Z,17.30
2022-11-17T21:48:33.138Z,19.23
2022-11-17T21:51:01.054Z,20.27
2022-11-17T21:53:29.790Z,17.60
2022-11-17T21:56:01.382Z,23.17
2022-11-17T21:58:29.338Z,21.70
2022-11-17T22:00:57.514Z,22.38
2022-11-17T22:03:25.714Z,16.83
2022-11-17T22:06:01.012Z,14.45
2022-11-17T22:08:30.201Z,17.05
2022-11-17T22:10:58.019Z,23.60
2022-11-17T22:13:25.833Z,22.45
2022-11-17T22:15:53.847Z,20.27
2022-11-17T22:18:21.743Z,19.88
2022-11-17T22:20:51.851Z,23.40
2022-11-17T22:23:21.099Z,26.33
2022-11-17T22:25:54.587Z,16.75
2022-11-17T22:28:22.758Z,21.33
2022-11-17T22:30:50.960Z,21.27
2022-11-17T22:33:19.124Z,14.20
2022-11-17T22:35:47.092Z,22.60
2022-11-17T22:38:16.050Z,16.65
2022-11-17T22:40:45.297Z,19.60
2022-11-17T22:43:15.408Z,22.95
2022-11-17T22:45:43.854Z,15.13
2022-11-17T22:48:11.717Z,17.00
2022-11-17T22:50:39.509Z,13.82
2022-11-17T22:53:07.411Z,16.90
2022-11-17T22:55:35.357Z,14.32
2022-11-17T22:58:04.620Z,13.10
2022-11-17T23:00:32.539Z,17.70
2022-11-17T23:03:00.477Z,13.07
2022-11-17T23:05:28.682Z,6.90
2022-11-17T23:07:56.752Z,14.25
2022-11-17T23:10:24.603Z,11.68
2022-11-17T23:12:52.845Z,12.25
2022-11-17T23:15:22.325Z,12.68
2022-11-17T23:17:50.134Z,12.50
2022-11-17T23:20:21.278Z,15.20
2022-11-17T23:22:49.305Z,12.30
2022-11-17T23:25:17.502Z,12.32
2022-11-17T23:27:45.371Z,11.02
2022-11-17T23:30:14.205Z,9.40
2022-11-17T23:32:43.674Z,13.63
2022-11-17T23:35:11.609Z,15.57
2022-11-17T23:37:39.670Z,11.90
2022-11-17T23:40:08.799Z,13.95
2022-11-17T23:42:42.680Z,14.18
2022-11-17T23:45:12.056Z,12.90
2022-11-17T23:47:40.445Z,10.85
2022-11-17T23:50:10.419Z,13.10
2022-11-17T23:52:38.298Z,15.85
2022-11-17T23:55:06.836Z,11.18
2022-11-17T23:57:34.697Z,10.88
